createdAt,value
2018-09-14T00:01:17.403Z,16.40
2018-09-14T00:03:45.851Z,16.40
2018-09-14T00:06:14.249Z,16.40
2018-09-14T00:08:42.686Z,16.30
2018-09-14T00:11:11.079Z,16.40
2018-09-14T00:13:39.507Z,16.30
2018-09-14T00:16:07.929Z,16.30
2018-09-14T00:18:36.330Z,16.40
2018-09-14T00:21:04.747Z,16.20
2018-09-14T00:23:33.160Z,16.20
2018-09-14T00:26:01.576Z,16.30
2018-09-14T00:28:30.037Z,16.30
2018-09-14T00:30:58.454Z,16.30
2018-09-14T00:33:26.879Z,16.40
2018-09-14T00:35:55.325Z,16.40
2018-09-14T00:38:23.770Z,16.40
2018-09-14T00:40:52.190Z,16.40
2018-09-14T00:43:20.632Z,16.50
2018-09-14T00:45:49.042Z,16.40
2018-09-14T00:48:17.458Z,16.40
2018-09-14T00:50:45.886Z,16.50
2018-09-14T00:53:14.320Z,16.50
2018-09-14T00:55:42.784Z,16.50
2018-09-14T00:58:11.243Z,16.40
2018-09-14T01:00:39.669Z,16.40
2018-09-14T01:03:08.071Z,16.30
2018-09-14T01:05:36.531Z,16.40
2018-09-14T01:08:04.961Z,16.30
2018-09-14T01:10:33.391Z,16.40
2018-09-14T01:13:01.811Z,16.50
2018-09-14T01:15:30.247Z,16.50
2018-09-14T01:17:58.654Z,16.40
2018-09-14T01:20:27.082Z,16.40
2018-09-14T01:22:55.512Z,16.40
2018-09-14T01:25:23.938Z,16.40
2018-09-14T01:27:52.350Z,16.40
2018-09-14T01:30:20.801Z,16.30
2018-09-14T01:32:49.230Z,16.40
2018-09-14T01:35:23.035Z,16.40
2018-09-14T01:37:51.490Z,16.40
2018-09-14T01:40:19.927Z,16.50
2018-09-14T01:42:48.365Z,16.50
2018-09-14T01:45:16.894Z,16.50
2018-09-14T01:47:45.383Z,16.60
2018-09-14T01:50:13.848Z,16.50
2018-09-14T01:52:42.274Z,16.50
2018-09-14T01:55:10.728Z,16.60
2018-09-14T01:57:39.174Z,16.50
2018-09-14T02:00:07.716Z,16.50
2018-09-14T02:02:36.167Z,16.60
2018-09-14T02:05:05.051Z,16.60
2018-09-14T02:07:33.469Z,16.50
2018-09-14T02:10:01.870Z,16.60
2018-09-14T02:12:30.299Z,16.60
2018-09-14T02:14:58.711Z,16.50
2018-09-14T02:17:27.139Z,16.50
2018-09-14T02:19:55.784Z,16.60
2018-09-14T02:22:24.195Z,16.50
2018-09-14T02:24:52.610Z,16.50
2018-09-14T02:27:21.039Z,16.60
2018-09-14T02:29:49.452Z,16.50
2018-09-14T02:32:17.914Z,16.60
2018-09-14T02:34:46.307Z,16.60
2018-09-14T02:37:14.748Z,16.60
2018-09-14T02:39:43.173Z,16.60
2018-09-14T02:42:11.600Z,16.60
2018-09-14T02:44:40.014Z,16.60
2018-09-14T02:47:08.459Z,16.60
2018-09-14T02:49:36.935Z,16.60
2018-09-14T02:52:05.338Z,16.60
2018-09-14T02:54:33.828Z,16.60
2018-09-14T02:57:02.258Z,16.70
2018-09-14T02:59:30.697Z,16.60
2018-09-14T03:01:59.151Z,16.60
2018-09-14T03:04:27.572Z,16.50
2018-09-14T03:06:56.009Z,16.40
2018-09-14T03:09:24.482Z,16.50
2018-09-14T03:11:52.912Z,16.60
2018-09-14T03:14:21.360Z,16.50
2018-09-14T03:16:49.782Z,16.50
2018-09-14T03:19:18.231Z,16.50
2018-09-14T03:21:46.650Z,16.50
2018-09-14T03:24:15.078Z,16.50
2018-09-14T03:26:43.491Z,16.50
2018-09-14T03:29:12.026Z,16.50
2018-09-14T03:31:40.444Z,16.50
2018-09-14T03:34:08.934Z,16.50
2018-09-14T03:36:37.359Z,16.40
2018-09-14T03:39:07.781Z,16.50
2018-09-14T03:41:36.191Z,16.50
2018-09-14T03:44:05.551Z,16.60
2018-09-14T03:46:33.955Z,16.40
2018-09-14T03:49:02.375Z,16.40
2018-09-14T03:51:30.783Z,16.50
2018-09-14T03:53:59.236Z,16.40
2018-09-14T03:56:27.660Z,16.50
2018-09-14T03:58:56.107Z,16.50
2018-09-14T04:01:24.543Z,16.50
2018-09-14T04:03:52.975Z,16.50
2018-09-14T04:06:22.847Z,16.40
2018-09-14T04:08:51.301Z,16.50
2018-09-14T04:11:20.023Z,16.50
2018-09-14T04:13:48.970Z,16.40
2018-09-14T04:16:17.393Z,16.40
2018-09-14T04:18:50.694Z,16.40
2018-09-14T04:21:19.119Z,16.50
2018-09-14T04:23:47.609Z,16.50
2018-09-14T04:26:16.071Z,16.50
2018-09-14T04:28:44.561Z,16.50
2018-09-14T04:31:12.995Z,16.40
2018-09-14T04:33:41.440Z,16.50
2018-09-14T04:36:09.870Z,16.40
2018-09-14T04:38:38.368Z,16.40
2018-09-14T04:41:06.787Z,16.50
2018-09-14T04:43:35.205Z,16.50
2018-09-14T04:46:03.622Z,16.50
2018-09-14T04:48:32.130Z,16.50
2018-09-14T04:51:00.559Z,16.50
2018-09-14T04:53:29.503Z,16.60
2018-09-14T04:55:57.943Z,16.50
2018-09-14T04:58:26.357Z,16.50
2018-09-14T05:00:54.786Z,16.50
2018-09-14T05:03:23.195Z,16.50
2018-09-14T05:05:51.654Z,16.60
2018-09-14T05:08:20.499Z,16.60
2018-09-14T05:10:48.932Z,16.60
2018-09-14T05:13:17.381Z,16.50
2018-09-14T05:15:45.819Z,16.50
2018-09-14T05:18:14.273Z,16.50
2018-09-14T05:20:42.757Z,16.50
2018-09-14T05:23:11.167Z,16.40
2018-09-14T05:25:39.596Z,16.30
2018-09-14T05:28:08.064Z,16.30
2018-09-14T05:30:36.502Z,16.40
2018-09-14T05:33:04.900Z,16.40
2018-09-14T05:35:33.315Z,16.40
2018-09-14T05:38:01.750Z,16.40
2018-09-14T05:40:30.208Z,16.40
2018-09-14T05:42:58.623Z,16.40
2018-09-14T05:45:27.122Z,16.40
2018-09-14T05:47:55.543Z,16.40
2018-09-14T05:50:24.048Z,16.40
2018-09-14T05:52:52.487Z,16.50
2018-09-14T05:55:20.963Z,16.40
2018-09-14T05:57:49.391Z,16.30
2018-09-14T06:00:17.821Z,16.30
2018-09-14T06:02:46.292Z,16.30
2018-09-14T06:05:14.758Z,16.30
2018-09-14T06:07:43.199Z,16.30
2018-09-14T06:10:11.714Z,16.30
2018-09-14T06:12:40.158Z,16.30
2018-09-14T06:15:08.616Z,16.30
2018-09-14T06:17:37.096Z,16.40
2018-09-14T06:20:05.623Z,16.40
2018-09-14T06:22:34.172Z,16.40
2018-09-14T06:25:02.528Z,16.40
2018-09-14T06:27:30.963Z,16.40
2018-09-14T06:29:59.383Z,16.50
2018-09-14T06:32:28.057Z,16.50
2018-09-14T06:34:56.531Z,16.50
2018-09-14T06:37:25.059Z,16.40
2018-09-14T06:39:53.615Z,16.50
2018-09-14T06:42:21.990Z,16.60
2018-09-14T06:44:50.821Z,16.80
2018-09-14T06:47:19.261Z,16.80
2018-09-14T06:49:48.204Z,16.90
2018-09-14T06:52:16.676Z,17.10
2018-09-14T06:54:45.107Z,17.10
2018-09-14T06:57:13.639Z,17.00
2018-09-14T06:59:42.035Z,17.00
2018-09-14T07:02:10.455Z,16.80
2018-09-14T07:04:38.851Z,16.80
2018-09-14T07:07:07.292Z,16.90
2018-09-14T07:09:35.695Z,16.80
2018-09-14T07:12:04.171Z,16.80
2018-09-14T07:14:32.586Z,16.90
2018-09-14T07:17:01.022Z,17.00
2018-09-14T07:19:29.430Z,17.00
2018-09-14T07:21:57.926Z,17.00
2018-09-14T07:24:26.374Z,16.90
2018-09-14T07:26:54.747Z,16.90
2018-09-14T07:29:23.228Z,16.90
2018-09-14T07:31:51.738Z,17.00
2018-09-14T07:34:20.098Z,17.00
2018-09-14T07:36:48.569Z,17.00
2018-09-14T07:39:17.034Z,17.10
2018-09-14T07:41:45.456Z,17.10
2018-09-14T07:44:13.901Z,17.00
2018-09-14T07:46:42.332Z,16.90
2018-09-14T07:49:10.768Z,17.00
2018-09-14T07:51:39.191Z,17.00
2018-09-14T07:54:07.645Z,16.90
2018-09-14T07:56:36.101Z,16.90
2018-09-14T07:59:04.570Z,16.90
2018-09-14T08:01:33.020Z,17.00
2018-09-14T08:04:01.896Z,17.00
2018-09-14T08:06:30.389Z,17.10
2018-09-14T08:08:59.167Z,17.00
2018-09-14T08:11:27.591Z,17.00
2018-09-14T08:13:56.103Z,16.90
2018-09-14T08:16:24.558Z,17.00
2018-09-14T08:18:53.833Z,17.00
2018-09-14T08:21:22.266Z,17.00
2018-09-14T08:23:50.711Z,17.00
2018-09-14T08:26:19.150Z,17.10
2018-09-14T08:28:47.591Z,17.00
2018-09-14T08:31:16.020Z,17.20
2018-09-14T08:33:44.462Z,17.20
2018-09-14T08:36:12.890Z,17.40
2018-09-14T08:38:41.453Z,17.50
2018-09-14T08:41:09.884Z,17.40
2018-09-14T08:43:38.736Z,17.50
2018-09-14T08:46:07.266Z,17.70
2018-09-14T08:48:35.711Z,17.70
2018-09-14T08:51:04.163Z,17.80
2018-09-14T08:53:32.666Z,17.90
2018-09-14T08:56:01.115Z,18.00
2018-09-14T08:58:29.654Z,18.00
2018-09-14T09:00:58.220Z,18.10
2018-09-14T09:03:26.564Z,18.10
2018-09-14T09:05:55.036Z,18.10
2018-09-14T09:08:23.468Z,18.20
2018-09-14T09:10:51.996Z,18.00
2018-09-14T09:13:20.447Z,18.10
2018-09-14T09:15:49.240Z,18.20
2018-09-14T09:18:17.659Z,18.10
2018-09-14T09:20:46.107Z,18.20
2018-09-14T09:23:14.576Z,18.10
2018-09-14T09:25:43.028Z,18.10
2018-09-14T09:28:11.471Z,18.00
2018-09-14T09:30:39.918Z,18.20
2018-09-14T09:33:08.334Z,18.30
2018-09-14T09:35:36.787Z,18.50
2018-09-14T09:38:05.244Z,18.40
2018-09-14T09:40:33.699Z,18.50
2018-09-14T09:43:02.204Z,18.40
2018-09-14T09:45:30.640Z,18.30
2018-09-14T09:47:59.122Z,18.50
2018-09-14T09:50:27.572Z,18.50
2018-09-14T09:52:56.021Z,18.70
2018-09-14T09:55:24.484Z,18.50
2018-09-14T09:57:52.952Z,18.50
2018-09-14T10:00:26.846Z,18.60
2018-09-14T10:03:00.727Z,18.70
2018-09-14T10:05:34.727Z,18.70
2018-09-14T10:08:03.180Z,18.70
2018-09-14T10:10:31.628Z,18.90
2018-09-14T10:13:00.049Z,18.60
2018-09-14T10:15:28.513Z,18.60
2018-09-14T10:17:57.057Z,18.70
2018-09-14T10:20:25.529Z,18.90
2018-09-14T10:22:54.702Z,18.70
2018-09-14T10:25:23.115Z,18.90
2018-09-14T10:27:51.568Z,18.90
2018-09-14T10:30:20.013Z,19.00
2018-09-14T10:32:48.455Z,19.10
2018-09-14T10:35:16.892Z,19.20
2018-09-14T10:37:45.379Z,19.30
2018-09-14T10:40:13.832Z,19.40
2018-09-14T10:42:42.324Z,19.60
2018-09-14T10:45:10.766Z,19.70
2018-09-14T10:47:39.203Z,19.40
2018-09-14T10:50:07.718Z,19.50
2018-09-14T10:52:36.207Z,19.40
2018-09-14T10:55:04.648Z,19.40
2018-09-14T10:57:33.112Z,19.50
2018-09-14T11:00:01.547Z,19.60
2018-09-14T11:02:29.997Z,19.90
2018-09-14T11:04:58.423Z,20.00
2018-09-14T11:07:26.858Z,20.10
2018-09-14T11:09:55.359Z,20.10
2018-09-14T11:12:23.764Z,20.30
2018-09-14T11:14:52.250Z,20.30
2018-09-14T11:17:20.714Z,20.30
2018-09-14T11:19:49.144Z,20.30
2018-09-14T11:22:17.590Z,20.30
2018-09-14T11:24:46.162Z,20.40
2018-09-14T11:27:14.464Z,20.30
2018-09-14T11:29:42.882Z,20.70
2018-09-14T11:32:11.327Z,20.60
2018-09-14T11:34:39.762Z,20.80
2018-09-14T11:37:08.230Z,20.80
2018-09-14T11:39:36.707Z,20.90
2018-09-14T11:42:05.215Z,20.70
2018-09-14T11:44:33.772Z,20.30
2018-09-14T11:47:02.268Z,20.20
2018-09-14T11:49:30.718Z,20.40
2018-09-14T11:51:59.161Z,20.60
2018-09-14T11:54:27.642Z,20.60
2018-09-14T11:56:56.111Z,20.70
2018-09-14T11:59:24.628Z,20.50
2018-09-14T12:01:53.369Z,20.50
2018-09-14T12:04:22.129Z,20.50
2018-09-14T12:06:50.548Z,20.50
2018-09-14T12:09:18.998Z,20.50
2018-09-14T12:11:47.439Z,20.50
2018-09-14T12:14:15.884Z,20.50
2018-09-14T12:16:44.331Z,20.50
2018-09-14T12:19:12.813Z,20.40
2018-09-14T12:21:41.270Z,20.50
2018-09-14T12:24:09.722Z,20.40
2018-09-14T12:26:38.162Z,20.40
2018-09-14T12:29:06.648Z,20.50
2018-09-14T12:31:35.078Z,20.60
2018-09-14T12:34:03.561Z,20.80
2018-09-14T12:36:31.988Z,20.80
2018-09-14T12:39:00.448Z,20.80
2018-09-14T12:41:28.877Z,20.80
2018-09-14T12:43:57.325Z,20.50
2018-09-14T12:46:25.727Z,20.60
2018-09-14T12:48:54.171Z,20.80
2018-09-14T12:51:22.599Z,20.70
2018-09-14T12:53:51.026Z,20.90
2018-09-14T12:56:19.463Z,20.80
2018-09-14T12:58:47.936Z,20.80
2018-09-14T13:01:16.492Z,20.70
2018-09-14T13:03:44.944Z,20.80
2018-09-14T13:06:13.363Z,20.80
2018-09-14T13:08:41.907Z,20.90
2018-09-14T13:11:10.314Z,20.80
2018-09-14T13:13:38.753Z,20.70
2018-09-14T13:16:07.263Z,20.80
2018-09-14T13:18:35.707Z,20.80
2018-09-14T13:21:04.149Z,20.80
2018-09-14T13:23:32.589Z,20.80
2018-09-14T13:26:01.019Z,20.80
2018-09-14T13:28:29.430Z,20.90
2018-09-14T13:30:57.862Z,20.90
2018-09-14T13:33:26.295Z,20.80
2018-09-14T13:35:54.718Z,20.80
2018-09-14T13:38:23.151Z,20.80
2018-09-14T13:40:51.599Z,20.80
2018-09-14T13:43:20.017Z,20.70
2018-09-14T13:45:48.454Z,20.80
2018-09-14T13:48:17.097Z,20.90
2018-09-14T13:50:45.541Z,20.90
2018-09-14T13:53:13.970Z,20.90
2018-09-14T13:55:42.657Z,20.90
2018-09-14T13:58:11.080Z,20.90
2018-09-14T14:00:39.568Z,21.00
2018-09-14T14:03:08.002Z,21.00
2018-09-14T14:05:36.453Z,21.00
2018-09-14T14:08:04.887Z,21.00
2018-09-14T14:10:33.324Z,21.00
2018-09-14T14:13:01.749Z,21.30
2018-09-14T14:15:30.211Z,21.40
2018-09-14T14:17:58.619Z,21.30
2018-09-14T14:20:27.063Z,21.50
2018-09-14T14:22:55.604Z,21.60
2018-09-14T14:25:24.031Z,21.70
2018-09-14T14:27:52.456Z,21.60
2018-09-14T14:30:20.954Z,21.60
2018-09-14T14:32:49.407Z,21.70
2018-09-14T14:35:17.935Z,21.40
2018-09-14T14:37:46.369Z,21.40
2018-09-14T14:40:14.791Z,21.20
2018-09-14T14:42:43.202Z,21.10
2018-09-14T14:45:11.643Z,21.10
2018-09-14T14:47:40.124Z,21.00
2018-09-14T14:50:08.612Z,20.90
2018-09-14T14:52:37.051Z,21.00
2018-09-14T14:55:05.529Z,21.00
2018-09-14T14:57:33.977Z,21.00
2018-09-14T15:00:02.402Z,20.90
2018-09-14T15:02:30.844Z,20.90
2018-09-14T15:04:59.284Z,20.80
2018-09-14T15:07:27.738Z,20.80
2018-09-14T15:09:56.168Z,20.90
2018-09-14T15:12:24.650Z,21.00
2018-09-14T15:14:53.077Z,21.00
2018-09-14T15:17:21.534Z,20.90
2018-09-14T15:19:50.003Z,21.00
2018-09-14T15:22:18.467Z,20.90
2018-09-14T15:24:46.906Z,20.80
2018-09-14T15:27:15.394Z,20.80
2018-09-14T15:29:43.818Z,20.90
2018-09-14T15:32:12.350Z,20.90
2018-09-14T15:34:40.775Z,20.90
2018-09-14T15:37:09.224Z,20.90
2018-09-14T15:39:37.721Z,21.00
2018-09-14T15:42:06.194Z,20.90
2018-09-14T15:44:34.610Z,20.90
2018-09-14T15:47:03.071Z,20.80
2018-09-14T15:49:31.484Z,20.90
2018-09-14T15:51:59.935Z,20.90
2018-09-14T15:54:28.440Z,20.90
2018-09-14T15:56:56.897Z,20.80
2018-09-14T15:59:25.343Z,20.80
2018-09-14T16:01:53.793Z,20.80
2018-09-14T16:04:22.207Z,20.90
2018-09-14T16:06:51.051Z,21.00
2018-09-14T16:09:19.476Z,21.00
2018-09-14T16:11:47.924Z,20.90
2018-09-14T16:14:16.347Z,21.00
2018-09-14T16:16:44.802Z,21.00
2018-09-14T16:19:13.237Z,21.00
2018-09-14T16:21:41.675Z,21.00
2018-09-14T16:24:10.123Z,20.80
2018-09-14T16:26:38.592Z,20.80
2018-09-14T16:29:07.058Z,20.80
2018-09-14T16:31:35.621Z,20.70
2018-09-14T16:34:04.061Z,20.60
2018-09-14T16:36:32.509Z,20.50
2018-09-14T16:39:00.958Z,20.50
2018-09-14T16:41:29.361Z,20.50
2018-09-14T16:43:57.793Z,20.50
2018-09-14T16:46:26.210Z,20.50
2018-09-14T16:48:54.652Z,20.60
2018-09-14T16:51:23.089Z,20.50
2018-09-14T16:53:51.539Z,20.50
2018-09-14T16:56:19.947Z,20.60
2018-09-14T16:58:48.458Z,20.50
2018-09-14T17:01:16.894Z,20.50
2018-09-14T17:03:45.367Z,20.50
2018-09-14T17:06:13.770Z,20.40
2018-09-14T17:08:42.220Z,20.50
2018-09-14T17:11:10.648Z,20.50
2018-09-14T17:13:39.124Z,20.50
2018-09-14T17:16:07.566Z,20.40
2018-09-14T17:18:36.004Z,20.30
2018-09-14T17:21:04.417Z,20.30
2018-09-14T17:23:32.881Z,20.30
2018-09-14T17:26:01.317Z,20.30
2018-09-14T17:28:29.831Z,20.20
2018-09-14T17:30:58.354Z,20.20
2018-09-14T17:33:26.770Z,20.20
2018-09-14T17:35:55.214Z,20.10
2018-09-14T17:38:23.675Z,20.10
2018-09-14T17:40:52.082Z,20.10
2018-09-14T17:43:20.535Z,20.10
2018-09-14T17:45:48.998Z,20.10
2018-09-14T17:48:17.443Z,20.00
2018-09-14T17:50:45.941Z,20.10
2018-09-14T17:53:14.383Z,20.00
2018-09-14T17:55:42.822Z,20.00
2018-09-14T17:58:11.221Z,19.90
2018-09-14T18:00:39.661Z,19.90
2018-09-14T18:03:08.169Z,19.90
2018-09-14T18:05:36.550Z,19.80
2018-09-14T18:08:05.167Z,19.80
2018-09-14T18:10:33.590Z,19.70
2018-09-14T18:13:02.020Z,19.70
2018-09-14T18:15:30.459Z,19.60
2018-09-14T18:17:58.886Z,19.60
2018-09-14T18:20:27.342Z,19.60
2018-09-14T18:22:55.762Z,19.60
2018-09-14T18:25:24.198Z,19.50
2018-09-14T18:27:52.680Z,19.60
2018-09-14T18:30:21.173Z,19.60
2018-09-14T18:32:49.611Z,19.60
2018-09-14T18:35:18.109Z,19.50
2018-09-14T18:37:46.591Z,19.50
2018-09-14T18:40:15.000Z,19.50
2018-09-14T18:42:43.479Z,19.50
2018-09-14T18:45:11.938Z,19.50
2018-09-14T18:47:40.344Z,19.50
2018-09-14T18:50:08.802Z,19.50
2018-09-14T18:52:37.290Z,19.50
2018-09-14T18:55:06.141Z,19.40
2018-09-14T18:57:34.567Z,19.40
2018-09-14T19:00:03.020Z,19.40
2018-09-14T19:02:31.460Z,19.40
2018-09-14T19:04:59.908Z,19.30
2018-09-14T19:07:28.318Z,19.30
2018-09-14T19:09:56.768Z,19.40
2018-09-14T19:12:25.204Z,19.30
2018-09-14T19:14:53.671Z,19.30
2018-09-14T19:17:22.083Z,19.30
2018-09-14T19:19:50.534Z,19.30
2018-09-14T19:22:18.955Z,19.30
2018-09-14T19:24:47.423Z,19.30
2018-09-14T19:27:15.803Z,19.20
2018-09-14T19:29:44.207Z,19.10
2018-09-14T19:32:12.803Z,19.10
2018-09-14T19:34:41.241Z,19.10
2018-09-14T19:37:09.692Z,19.10
2018-09-14T19:39:38.164Z,19.10
2018-09-14T19:42:06.616Z,19.10
2018-09-14T19:44:35.060Z,19.10
2018-09-14T19:47:03.532Z,19.10
2018-09-14T19:49:31.957Z,19.10
2018-09-14T19:52:00.402Z,19.10
2018-09-14T19:54:28.860Z,19.10
2018-09-14T19:56:57.340Z,19.10
2018-09-14T19:59:25.785Z,19.00
2018-09-14T20:01:54.258Z,19.00
2018-09-14T20:04:22.695Z,19.00
2018-09-14T20:06:51.152Z,19.00
2018-09-14T20:09:19.590Z,19.00
2018-09-14T20:11:48.153Z,19.00
2018-09-14T20:14:16.514Z,19.00
2018-09-14T20:16:44.975Z,19.00
2018-09-14T20:19:13.442Z,19.00
2018-09-14T20:21:41.920Z,19.00
2018-09-14T20:24:10.375Z,18.90
2018-09-14T20:26:39.374Z,18.90
2018-09-14T20:29:07.831Z,19.00
2018-09-14T20:31:36.260Z,18.90
2018-09-14T20:34:04.726Z,18.90
2018-09-14T20:36:33.234Z,18.90
2018-09-14T20:39:01.692Z,18.90
2018-09-14T20:41:30.140Z,18.90
2018-09-14T20:43:58.640Z,18.80
2018-09-14T20:46:27.081Z,18.80
2018-09-14T20:48:55.547Z,18.80
2018-09-14T20:51:24.034Z,18.80
2018-09-14T20:53:52.486Z,18.80
2018-09-14T20:56:20.919Z,18.70
2018-09-14T20:58:49.366Z,18.70
2018-09-14T21:01:17.806Z,18.60
2018-09-14T21:03:46.237Z,18.60
2018-09-14T21:06:14.744Z,18.70
2018-09-14T21:08:43.215Z,18.70
2018-09-14T21:11:11.651Z,18.60
2018-09-14T21:13:40.105Z,18.60
2018-09-14T21:16:08.530Z,18.60
2018-09-14T21:18:37.084Z,18.50
2018-09-14T21:21:05.510Z,18.50
2018-09-14T21:23:33.951Z,18.50
2018-09-14T21:26:02.400Z,18.50
2018-09-14T21:28:30.846Z,18.50
2018-09-14T21:30:59.287Z,18.40
2018-09-14T21:33:27.758Z,18.40
2018-09-14T21:35:56.214Z,18.40
2018-09-14T21:38:24.671Z,18.40
2018-09-14T21:40:53.107Z,18.30
2018-09-14T21:43:21.546Z,18.40
2018-09-14T21:45:50.080Z,18.30
2018-09-14T21:48:18.624Z,18.30
2018-09-14T21:50:46.995Z,18.30
2018-09-14T21:53:15.414Z,18.30
2018-09-14T21:55:43.821Z,18.30
2018-09-14T21:58:12.280Z,18.30
2018-09-14T22:00:46.082Z,18.30
2018-09-14T22:03:14.542Z,18.30
2018-09-14T22:05:42.967Z,18.30
2018-09-14T22:08:11.491Z,18.30
2018-09-14T22:10:39.983Z,18.30
2018-09-14T22:13:08.450Z,18.30
2018-09-14T22:15:37.003Z,18.30
2018-09-14T22:18:05.528Z,18.30
2018-09-14T22:20:34.176Z,18.30
2018-09-14T22:23:02.723Z,18.30
2018-09-14T22:25:31.175Z,18.30
2018-09-14T22:27:59.595Z,18.30
2018-09-14T22:30:28.036Z,18.30
2018-09-14T22:32:56.454Z,18.30
2018-09-14T22:35:25.024Z,18.30
2018-09-14T22:37:53.382Z,18.30
2018-09-14T22:40:21.843Z,18.30
2018-09-14T22:42:50.242Z,18.30
2018-09-14T22:45:18.674Z,18.30
2018-09-14T22:47:47.096Z,18.30
2018-09-14T22:50:15.546Z,18.30
2018-09-14T22:52:43.963Z,18.30
2018-09-14T22:55:12.402Z,18.40
2018-09-14T22:57:40.833Z,18.40
2018-09-14T23:00:09.354Z,18.30
2018-09-14T23:02:37.765Z,18.30
2018-09-14T23:05:06.198Z,18.30
2018-09-14T23:07:34.642Z,18.30
2018-09-14T23:10:03.200Z,18.40
2018-09-14T23:12:31.639Z,18.30
2018-09-14T23:15:00.056Z,18.40
2018-09-14T23:17:28.477Z,18.40
2018-09-14T23:19:56.878Z,18.40
2018-09-14T23:22:25.327Z,18.40
2018-09-14T23:24:53.739Z,18.30
2018-09-14T23:27:22.172Z,18.30
2018-09-14T23:29:50.604Z,18.20
2018-09-14T23:32:19.058Z,18.20
2018-09-14T23:34:47.470Z,18.20
2018-09-14T23:37:15.928Z,18.10
2018-09-14T23:39:44.460Z,18.10
2018-09-14T23:42:12.908Z,18.10
2018-09-14T23:44:41.398Z,18.10
2018-09-14T23:47:09.848Z,18.10
2018-09-14T23:49:38.276Z,18.10
2018-09-14T23:52:06.754Z,18.20
2018-09-14T23:54:35.171Z,18.20
2018-09-14T23:57:03.699Z,18.20
2018-09-14T23:59:32.199Z,18.20
